Time;durP1;ratioP1;P1;durP2;ratioP2;P2;SDS_P1;SDS_P2;PMS_P1;PMS_P2;Temp;Humidity;BMP_temperature;BMP_pressure;BME280_temperature;BME280_humidity;BME280_pressure;Samples;Min_cycle;Max_cycle;Signal;HPM_P1;HPM_P2
2021/07/13 00:01:13;;;;;;;13.07;11.80;;;;;;;23.24;51.76;94364.41;827715;71;32765;-75
2021/07/13 00:16:09;;;;;;;13.33;12.10;;;;;;;23.13;51.53;94384.95;828255;71;29774;-76
2021/07/13 00:31:15;;;;;;;12.70;11.50;;;;;;;22.98;51.71;94390.74;827490;71;32733;-76
2021/07/13 00:46:14;;;;;;;12.17;11.17;;;;;;;22.86;51.74;94394.45;833978;71;32796;-76
2021/07/13 01:01:08;;;;;;;12.40;11.23;;;;;;;22.74;52.90;94396.83;828398;71;29784;-78
2021/07/13 01:16:17;;;;;;;12.57;11.47;;;;;;;22.62;53.04;94381.61;834733;71;32692;-77
2021/07/13 01:31:17;;;;;;;13.13;11.73;;;;;;;22.36;53.46;94385.38;834707;71;32781;-77
2021/07/13 01:46:16;;;;;;;13.87;12.40;;;;;;;22.32;54.18;94407.30;827771;71;33241;-77
2021/07/13 02:01:19;;;;;;;13.20;12.03;;;;;;;22.21;54.67;94400.44;828314;71;29700;-77
2021/07/13 02:16:09;;;;;;;14.30;13.03;;;;;;;22.13;55.09;94386.03;834039;71;30743;-78
2021/07/13 02:31:33;;;;;;;12.67;11.57;;;;;;;22.07;55.43;94386.14;834087;71;32692;-76
2021/07/13 02:46:16;;;;;;;14.05;12.65;;;;;;;21.84;55.78;94395.03;827791;71;32677;-76
2021/07/13 03:16:15;;;;;;;14.20;12.80;;;;;;;21.60;56.98;94402.33;827582;71;32723;-77
2021/07/13 03:31:10;;;;;;;13.55;12.35;;;;;;;21.84;56.43;94396.91;834798;71;29849;-78
2021/07/13 03:46:09;;;;;;;14.10;12.80;;;;;;;22.18;55.79;94390.48;830055;71;29706;-75
2021/07/13 04:01:14;;;;;;;15.97;13.07;;;;;;;22.75;54.58;94397.59;827665;71;32723;-77
2021/07/13 04:16:14;;;;;;;14.13;12.73;;;;;;;23.52;52.84;94393.29;827751;71;32730;-77
2021/07/13 04:31:08;;;;;;;14.13;12.83;;;;;;;24.63;51.11;94390.95;828712;71;27932;-79
2021/07/13 04:46:13;;;;;;;20.03;14.20;;;;;;;25.18;49.98;94389.27;828247;71;32609;-78
2021/07/13 05:01:08;;;;;;;14.90;13.60;;;;;;;25.27;49.43;94382.98;828486;71;29770;-77
2021/07/13 05:16:14;;;;;;;14.90;13.50;;;;;;;25.48;50.40;94394.86;834074;71;33008;-77
2021/07/13 05:31:09;;;;;;;16.60;14.90;;;;;;;26.21;48.33;94372.03;828248;71;30227;-78
2021/07/13 05:46:09;;;;;;;17.00;15.33;;;;;;;26.58;47.44;94380.91;828150;71;30119;-76
2021/07/13 06:01:10;;;;;;;18.60;16.80;;;;;;;26.43;47.60;94388.27;828116;71;29938;-77
2021/07/13 06:16:15;;;;;;;17.43;15.73;;;;;;;26.25;47.98;94380.86;821402;70;33276;-76
2021/07/13 06:31:13;;;;;;;21.47;16.50;;;;;;;26.21;49.34;94388.94;827136;71;32111;-77
2021/07/13 06:46:15;;;;;;;17.93;16.30;;;;;;;26.59;49.10;94386.48;825478;71;32696;-77
2021/07/13 07:01:18;;;;;;;18.63;16.93;;;;;;;27.18;47.87;94384.36;827480;71;32780;-81
2021/07/13 07:16:07;;;;;;;18.33;16.50;;;;;;;;;;832274;71;29207;-77
2021/07/13 07:31:10;;;;;;;18.10;16.30;;;;;;;27.73;46.20;94355.77;827942;71;31338;-78
2021/07/13 07:46:31;;;;;;;18.70;16.90;;;;;;;27.95;45.43;94343.60;829999;71;33258;-79
2021/07/13 08:01:12;;;;;;;19.23;17.40;;;;;;;28.35;44.81;94340.43;828093;71;32023;-76
2021/07/13 08:16:14;;;;;;;18.20;16.47;;;;;;;28.93;43.01;94345.80;833728;71;32829;-78
2021/07/13 08:32:00;;;;;;;17.63;16.23;;;;;;;29.00;41.44;94350.34;833773;71;31430;-78
2021/07/13 08:46:09;;;;;;;17.80;16.20;;;;;;;29.52;39.03;94327.66;828393;71;29713;-80
2021/07/13 09:16:27;;;;;;;16.67;15.23;;;;;;;30.21;37.83;94325.79;827473;71;33303;-80
2021/07/13 09:31:49;;;;;;;16.57;15.20;;;;;;;30.87;36.31;94329.97;826318;71;33418;-81
2021/07/13 09:46:29;;;;;;;16.00;14.80;;;;;;;30.98;36.08;94320.25;828104;71;32002;-78
2021/07/13 10:01:15;;;;;;;16.50;15.00;;;;;;;31.49;34.94;94312.41;833875;71;33231;-80
2021/07/13 10:16:15;;;;;;;15.63;14.20;;;;;;;32.32;32.70;94295.98;831009;71;33160;-79
2021/07/13 10:31:45;;;;;;;16.20;14.80;;;;;;;32.89;31.10;94292.91;826824;71;32786;-77
2021/07/13 10:46:13;;;;;;;15.00;13.80;;;;;;;33.03;30.59;94286.25;828377;71;32077;-78
2021/07/13 11:01:21;;;;;;;13.67;12.53;;;;;;;33.79;28.57;94264.68;828116;71;30329;-77
2021/07/13 11:16:10;;;;;;;14.47;13.30;;;;;;;33.49;29.05;94260.05;824329;71;29907;-77
2021/07/13 11:31:08;;;;;;;14.53;13.23;;;;;;;33.86;28.35;94242.62;821551;71;29734;-76
2021/07/13 11:46:30;;;;;;;13.97;12.87;;;;;;;34.14;27.70;94232.66;834056;71;32851;-78
2021/07/13 12:01:24;;;;;;;12.23;11.33;;;;;;;34.21;27.07;94228.92;840468;70;32819;-79
2021/07/13 12:16:19;;;;;;;11.53;10.63;;;;;;;34.62;26.86;94211.33;833946;71;29782;-76
2021/07/13 12:31:11;;;;;;;15.30;14.10;;;;;;;34.98;26.21;94197.62;828027;71;30772;-78
2021/07/13 12:46:30;;;;;;;11.47;10.47;;;;;;;35.28;25.67;94191.11;834484;71;30758;-80
2021/07/13 13:01:16;;;;;;;12.00;11.10;;;;;;;35.30;25.39;94185.37;833829;71;30231;-75
2021/07/13 13:16:20;;;;;;;12.17;11.27;;;;;;;35.33;24.80;94185.06;828051;71;30164;-79
2021/07/13 13:31:23;;;;;;;11.07;10.17;;;;;;;35.15;24.01;94184.45;815830;71;33295;-75
2021/07/13 13:46:14;;;;;;;10.73;9.83;;;;;;;34.57;23.19;94169.66;827407;71;32705;-75
2021/07/13 14:01:14;;;;;;;10.20;9.40;;;;;;;34.49;23.28;94168.44;828101;71;32015;-78
2021/07/13 14:16:09;;;;;;;10.10;9.30;;;;;;;34.46;23.21;94165.27;828412;71;29574;-77
2021/07/13 14:31:08;;;;;;;14.17;13.07;;;;;;;34.15;27.31;94172.16;829620;71;30076;-79
2021/07/13 14:46:15;;;;;;;15.43;14.13;;;;;;;33.69;27.38;94163.14;827364;71;32694;-74
2021/07/13 15:16:16;;;;;;;15.40;14.20;;;;;;;33.26;28.24;94139.59;827656;71;33278;-78
2021/07/13 15:31:19;;;;;;;17.33;15.83;;;;;;;33.01;29.51;94136.96;828015;71;33235;-78
2021/07/13 15:46:14;;;;;;;15.33;13.83;;;;;;;32.66;29.92;94136.98;827541;71;32734;-77
2021/07/13 16:01:08;;;;;;;15.93;14.43;;;;;;;32.27;31.00;94135.70;828394;71;29736;-77
2021/07/13 16:16:09;;;;;;;15.40;13.97;;;;;;;31.98;32.74;94141.85;828373;71;29340;-76
2021/07/13 16:31:08;;;;;;;17.30;15.80;;;;;;;31.54;35.20;94144.47;828388;71;28867;-77
2021/07/13 16:46:15;;;;;;;18.10;16.50;;;;;;;31.25;35.88;94159.41;834288;71;32181;-77
2021/07/13 17:01:08;;;;;;;16.97;15.60;;;;;;;30.83;36.38;94156.63;834181;71;28726;-78
2021/07/13 17:16:14;;;;;;;20.27;18.57;;;;;;;30.38;36.74;94167.45;827721;71;31819;-76
2021/07/13 17:31:09;;;;;;;22.40;20.40;;;;;;;30.05;37.43;94183.05;828198;71;28811;-77
2021/07/13 17:46:09;;;;;;;20.13;18.33;;;;;;;29.72;37.45;94180.86;834049;71;28345;-77
2021/07/13 18:01:08;;;;;;;21.00;19.20;;;;;;;29.42;37.42;94188.59;828417;71;28341;-75
2021/07/13 18:16:14;;;;;;;19.30;17.70;;;;;;;29.05;39.44;94213.40;827220;71;30979;-78
2021/07/13 18:31:09;;;;;;;19.83;18.00;;;;;;;28.73;40.98;94228.22;834260;71;27703;-74
2021/07/13 18:46:14;;;;;;;19.70;17.90;;;;;;;28.41;41.48;94240.84;828309;71;30793;-74
2021/07/13 19:01:09;;;;;;;19.23;17.63;;;;;;;28.08;42.28;94253.47;786452;74;28822;-75
2021/07/13 19:16:14;;;;;;;18.43;16.77;;;;;;;27.70;42.77;94261.63;820495;71;31048;-74
2021/07/13 19:31:09;;;;;;;17.40;15.80;;;;;;;27.60;43.39;94263.86;823758;71;28806;-78
2021/07/13 19:46:09;;;;;;;17.13;15.60;;;;;;;27.56;44.28;94280.66;821957;71;29258;-77
2021/07/13 20:01:11;;;;;;;18.40;16.80;;;;;;;;;;817966;71;31024;-75
2021/07/13 20:16:08;;;;;;;18.10;16.50;;;;;;;26.54;47.05;123554.15;828404;71;27640;-78
2021/07/13 20:31:16;;;;;;;18.57;17.03;;;;;;;26.09;48.26;94279.09;833971;71;32727;-78
2021/07/13 20:46:09;;;;;;;18.43;16.63;;;;;;;25.93;48.61;94278.21;834004;71;29737;-77
2021/07/13 21:16:09;;;;;;;16.63;15.13;;;;;;;25.62;48.09;94266.42;828178;71;30353;-77
2021/07/13 21:31:09;;;;;;;15.77;14.37;;;;;;;25.47;47.64;94267.81;828274;71;30431;-75
2021/07/13 21:46:14;;;;;;;15.77;14.17;;;;;;;25.34;47.57;94269.37;833997;71;33190;-76
2021/07/13 22:01:08;;;;;;;14.83;13.50;;;;;;;25.26;47.64;94279.36;834037;71;29736;-76
2021/07/13 22:16:12;;;;;;;14.63;13.23;;;;;;;25.80;47.48;94293.99;828371;71;31857;-77
2021/07/13 22:31:09;;;;;;;14.47;13.27;;;;;;;26.36;46.36;94306.25;829338;71;30220;-76
2021/07/13 22:46:09;;;;;;;14.43;13.27;;;;;;;26.61;45.86;94308.80;834184;71;30128;-76
2021/07/13 23:01:14;;;;;;;13.87;12.67;;;;;;;26.77;45.56;94317.14;827959;71;32772;-76
2021/07/13 23:16:11;;;;;;;13.47;12.37;;;;;;;26.44;45.37;94323.88;828347;71;30191;-77
2021/07/13 23:31:09;;;;;;;13.80;12.50;;;;;;;26.45;46.10;94307.91;828520;71;29654;-78
2021/07/13 23:46:15;;;;;;;14.77;13.47;;;;;;;26.37;46.49;94301.03;828196;71;32804;-76
